Time;durP1;ratioP1;P1;durP2;ratioP2;P2;SDS_P1;SDS_P2;PMS_P1;PMS_P2;Temp;Humidity;BMP_temperature;BMP_pressure;BME280_temperature;BME280_humidity;BME280_pressure;Samples;Min_cycle;Max_cycle;Signal;HPM_P1;HPM_P2
2022/05/29 00:01:44;;;;;;;20.42;6.40;;;10.60;99.90;;;;;;5035923;28;20048;-71
2022/05/29 00:04:10;;;;;;;23.02;5.55;;;10.60;99.90;;;;;;5035946;28;20029;-71
2022/05/29 00:06:39;;;;;;;27.15;6.07;;;10.60;99.90;;;;;;5033665;28;20026;-71
2022/05/29 00:09:05;;;;;;;22.88;6.65;;;10.60;99.90;;;;;;5036069;28;20055;-71
2022/05/29 00:11:31;;;;;;;25.17;6.15;;;10.50;99.90;;;;;;5033690;28;20025;-70
2022/05/29 00:14:00;;;;;;;33.17;6.45;;;10.50;99.90;;;;;;5010729;28;20030;-71
2022/05/29 00:16:29;;;;;;;21.98;6.47;;;10.50;99.90;;;;;;5037374;28;20477;-72
2022/05/29 00:18:55;;;;;;;19.25;6.13;;;10.50;99.90;;;;;;5037347;28;20016;-74
2022/05/29 00:21:21;;;;;;;18.35;6.22;;;10.50;99.90;;;;;;5036089;28;20049;-74
2022/05/29 00:23:49;;;;;;;14.00;4.40;;;10.50;99.90;;;;;;5036204;28;20034;-73
2022/05/29 00:26:19;;;;;;;24.02;5.35;;;10.50;99.90;;;;;;5037675;28;20393;-73
2022/05/29 00:28:48;;;;;;;24.83;5.63;;;10.50;99.90;;;;;;5036475;28;20083;-73
2022/05/29 00:31:14;;;;;;;23.70;5.35;;;10.50;99.90;;;;;;5017679;28;20101;-73
2022/05/29 00:33:40;;;;;;;20.73;5.25;;;10.60;99.90;;;;;;5035460;28;20485;-73
2022/05/29 00:36:14;;;;;;;22.45;5.60;;;10.50;99.90;;;;;;5036421;28;20509;-73
2022/05/29 00:38:42;;;;;;;25.77;5.75;;;10.60;99.90;;;;;;5034128;28;20053;-73
2022/05/29 00:41:18;;;;;;;27.10;4.93;;;10.50;99.90;;;;;;5036081;28;20092;-73
2022/05/29 00:44:12;;;;;;;21.17;5.80;;;10.50;99.90;;;;;;5015924;28;20025;-73
2022/05/29 00:46:42;;;;;;;17.25;5.05;;;10.60;99.90;;;;;;5032897;28;20030;-73
2022/05/29 00:49:10;;;;;;;21.10;5.45;;;10.50;99.90;;;;;;5034290;28;20025;-72
2022/05/29 00:51:58;;;;;;;19.23;5.20;;;10.60;99.90;;;;;;5034165;28;20033;-72
2022/05/29 00:54:24;;;;;;;23.10;4.88;;;10.60;99.90;;;;;;5016350;28;20057;-74
2022/05/29 00:56:52;;;;;;;20.23;5.63;;;10.60;99.90;;;;;;5036678;28;20037;-72
2022/05/29 00:59:25;;;;;;;22.42;5.30;;;10.60;99.90;;;;;;5018859;28;20021;-73
2022/05/29 01:01:52;;;;;;;12.35;4.85;;;10.60;99.90;;;;;;5035380;28;20025;-72
2022/05/29 01:04:20;;;;;;;23.42;4.70;;;10.60;99.90;;;;;;5034656;28;20029;-72
2022/05/29 01:06:45;;;;;;;22.00;5.10;;;10.60;99.90;;;;;;5020113;28;20021;-72
2022/05/29 01:09:13;;;;;;;22.55;6.00;;;10.50;99.90;;;;;;5036543;28;20490;-72
2022/05/29 01:11:59;;;;;;;20.00;4.35;;;10.60;99.90;;;;;;5015602;28;20029;-71
2022/05/29 01:14:54;;;;;;;20.55;4.63;;;10.60;99.90;;;;;;5034434;28;20019;-71
2022/05/29 01:17:38;;;;;;;22.05;4.43;;;10.60;99.90;;;;;;5030576;28;20021;-71
2022/05/29 01:20:13;;;;;;;27.25;4.90;;;10.60;99.90;;;;;;5027746;28;20025;-71
2022/05/29 01:22:58;;;;;;;19.80;4.82;;;10.60;99.90;;;;;;5026231;28;20025;-71
2022/05/29 01:25:43;;;;;;;19.77;4.38;;;10.60;99.90;;;;;;5034596;28;20544;-71
2022/05/29 01:28:38;;;;;;;21.88;4.03;;;10.70;99.90;;;;;;5034892;28;20022;-71
2022/05/29 01:31:14;;;;;;;15.25;4.30;;;10.70;99.90;;;;;;5023309;28;20116;-71
2022/05/29 01:33:55;;;;;;;23.20;4.65;;;10.60;99.90;;;;;;5031699;28;20037;-71
2022/05/29 01:36:41;;;;;;;;;;;10.60;99.90;;;;;;5033903;28;20475;-71
2022/05/29 01:39:32;;;;;;;20.75;4.95;;;10.60;99.90;;;;;;5021029;28;19905;-71
2022/05/29 01:42:04;;;;;;;18.00;4.25;;;10.60;99.90;;;;;;5034811;28;20026;-71
2022/05/29 01:44:34;;;;;;;;;;;10.60;99.90;;;;;;5036454;28;20036;-71
2022/05/29 01:47:14;;;;;;;17.88;4.95;;;10.60;99.90;;;;;;5039589;28;19909;-74
2022/05/29 01:49:46;;;;;;;23.30;4.32;;;10.60;99.90;;;;;;5034629;28;20033;-73
2022/05/29 01:52:15;;;;;;;17.60;4.28;;;10.60;99.90;;;;;;5034805;28;20098;-74
2022/05/29 01:54:48;;;;;;;16.70;4.07;;;10.60;99.90;;;;;;5034893;28;20026;-74
2022/05/29 01:57:22;;;;;;;17.48;4.65;;;10.60;99.90;;;;;;5017690;28;20030;-74
2022/05/29 02:00:18;;;;;;;21.38;4.55;;;10.60;99.90;;;;;;5024806;28;20352;-74
2022/05/29 02:02:55;;;;;;;20.05;4.20;;;10.50;99.90;;;;;;5034265;28;20025;-73
2022/05/29 02:05:27;;;;;;;26.23;4.63;;;10.60;99.90;;;;;;5024345;28;20129;-71
2022/05/29 02:08:01;;;;;;;17.58;4.60;;;10.60;99.90;;;;;;5032458;28;20041;-70
2022/05/29 02:10:43;;;;;;;18.15;5.15;;;10.60;99.90;;;;;;5034635;28;20105;-70
2022/05/29 02:13:23;;;;;;;16.63;5.30;;;10.60;99.90;;;;;;5024310;28;20033;-71
2022/05/29 02:16:03;;;;;;;14.35;4.35;;;10.60;99.90;;;;;;5024596;28;20029;-71
2022/05/29 02:18:44;;;;;;;20.88;5.18;;;10.60;99.90;;;;;;5024577;28;20034;-71
2022/05/29 02:21:35;;;;;;;13.82;4.43;;;10.60;99.90;;;;;;5022998;28;20025;-70
2022/05/29 02:24:05;;;;;;;22.00;4.70;;;10.50;99.90;;;;;;5003903;28;20033;-70
2022/05/29 02:26:37;;;;;;;20.65;4.70;;;10.60;99.90;;;;;;5060775;22;20041;-69
2022/05/29 02:29:09;;;;;;;15.90;3.83;;;10.60;99.90;;;;;;5055586;28;20029;-70
2022/05/29 02:32:07;;;;;;;23.67;4.45;;;10.60;99.90;;;;;;5055987;28;20051;-69
2022/05/29 02:35:07;;;;;;;12.35;4.28;;;10.60;99.90;;;;;;5055609;28;20021;-69
2022/05/29 02:37:58;;;;;;;19.40;4.20;;;10.60;99.90;;;;;;5035648;28;20029;-70
2022/05/29 02:40:48;;;;;;;17.03;4.63;;;10.60;99.90;;;;;;5035596;28;20033;-70
2022/05/29 02:43:37;;;;;;;15.95;4.68;;;10.60;99.90;;;;;;5042302;28;20118;-69
2022/05/29 02:46:21;;;;;;;23.08;4.93;;;10.60;99.90;;;;;;5041301;28;20045;-69
2022/05/29 02:49:15;;;;;;;19.48;4.88;;;10.70;99.90;;;;;;5035544;28;20026;-70
2022/05/29 02:51:49;;;;;;;15.25;3.80;;;10.70;99.90;;;;;;5034387;28;20074;-69
2022/05/29 02:54:25;;;;;;;17.23;4.57;;;10.70;99.90;;;;;;5034722;28;20017;-70
2022/05/29 02:56:54;;;;;;;21.35;4.97;;;10.70;99.90;;;;;;5035032;28;20048;-69
2022/05/29 02:59:23;;;;;;;17.75;4.55;;;10.70;99.90;;;;;;5035060;28;20471;-69
2022/05/29 03:02:26;;;;;;;16.08;4.03;;;10.70;99.90;;;;;;5034655;28;20159;-68
2022/05/29 03:04:57;;;;;;;25.60;4.53;;;10.60;99.90;;;;;;5034030;28;20021;-69
2022/05/29 03:07:39;;;;;;;17.55;3.60;;;10.60;99.90;;;;;;5034039;28;20083;-70
2022/05/29 03:10:29;;;;;;;26.33;4.43;;;10.60;99.90;;;;;;5034421;28;20071;-69
2022/05/29 03:12:57;;;;;;;15.18;4.55;;;10.70;99.90;;;;;;5035079;28;20028;-70
2022/05/29 03:15:47;;;;;;;20.23;4.68;;;10.70;99.90;;;;;;5034580;28;20087;-70
2022/05/29 03:18:38;;;;;;;22.27;4.75;;;10.70;99.90;;;;;;5035502;28;20021;-69
2022/05/29 03:21:46;;;;;;;28.03;4.93;;;10.60;99.90;;;;;;5035504;28;20417;-71
2022/05/29 03:24:18;;;;;;;21.73;5.10;;;10.60;99.90;;;;;;5035828;28;20319;-70
2022/05/29 03:27:00;;;;;;;13.30;4.47;;;10.70;99.90;;;;;;5034931;28;20037;-69
2022/05/29 03:29:53;;;;;;;28.45;4.50;;;10.70;99.90;;;;;;5035734;28;20475;-69
2022/05/29 03:32:19;;;;;;;17.15;4.40;;;10.70;99.90;;;;;;5038283;28;20037;-70
2022/05/29 03:34:45;;;;;;;17.83;4.95;;;10.60;99.90;;;;;;5039660;28;20072;-70
2022/05/29 03:37:11;;;;;;;23.30;6.03;;;10.60;99.90;;;;;;5035329;28;20415;-70
2022/05/29 03:39:36;;;;;;;14.68;4.65;;;10.70;99.90;;;;;;5035359;28;20105;-70
2022/05/29 03:42:02;;;;;;;18.58;4.50;;;10.70;99.90;;;;;;5016946;28;20029;-70
2022/05/29 03:44:27;;;;;;;13.93;4.35;;;10.70;99.90;;;;;;5035586;28;20352;-69
2022/05/29 03:46:53;;;;;;;14.00;4.28;;;10.70;99.90;;;;;;5034830;28;20119;-70
2022/05/29 03:49:21;;;;;;;28.67;4.95;;;10.70;99.90;;;;;;5035004;28;20025;-70
2022/05/29 03:51:47;;;;;;;17.45;4.43;;;10.70;99.90;;;;;;5034875;28;20026;-69
2022/05/29 03:54:14;;;;;;;20.73;4.30;;;10.70;99.90;;;;;;5035182;28;20033;-70
2022/05/29 03:56:40;;;;;;;24.20;5.20;;;10.60;99.90;;;;;;5017077;28;20021;-69
2022/05/29 03:59:05;;;;;;;15.85;4.97;;;10.70;99.90;;;;;;5034545;28;20025;-70
2022/05/29 04:01:32;;;;;;;18.98;4.57;;;10.60;99.90;;;;;;5016703;28;20424;-70
2022/05/29 04:03:58;;;;;;;23.60;4.82;;;10.70;99.90;;;;;;5034848;28;20025;-68
2022/05/29 04:06:25;;;;;;;21.80;5.28;;;10.70;99.90;;;;;;5035086;28;20091;-69
2022/05/29 04:14:22;;;;;;;14.07;4.63;;;10.60;99.90;;;;;;5034899;28;20091;-70
2022/05/29 04:16:48;;;;;;;20.50;5.13;;;10.70;99.90;;;;;;5034682;28;20108;-70
2022/05/29 04:19:14;;;;;;;18.30;4.45;;;10.70;99.90;;;;;;5034579;28;20025;-70
2022/05/29 04:21:39;;;;;;;23.52;5.07;;;10.70;99.90;;;;;;5035018;28;20044;-70
2022/05/29 04:24:06;;;;;;;20.00;4.85;;;10.70;99.90;;;;;;5034553;28;20020;-70
2022/05/29 04:26:32;;;;;;;19.10;4.55;;;10.70;99.90;;;;;;5034241;28;20048;-68
2022/05/29 04:29:00;;;;;;;26.52;4.70;;;10.70;99.90;;;;;;5034723;28;20474;-70
2022/05/29 04:31:26;;;;;;;21.67;4.72;;;10.70;99.90;;;;;;5017024;28;20029;-70
2022/05/29 04:33:52;;;;;;;23.83;5.13;;;10.80;99.90;;;;;;5035405;28;20052;-69
2022/05/29 04:36:17;;;;;;;18.20;4.55;;;10.80;99.90;;;;;;5034512;28;20033;-69
2022/05/29 04:38:43;;;;;;;24.73;4.55;;;10.70;99.90;;;;;;5016893;28;20026;-70
2022/05/29 04:41:09;;;;;;;18.77;4.57;;;10.70;99.90;;;;;;5034855;28;20029;-70
2022/05/29 04:43:36;;;;;;;14.57;4.13;;;10.80;99.90;;;;;;5035936;28;20028;-68
2022/05/29 04:46:02;;;;;;;18.05;4.50;;;10.80;99.90;;;;;;5035133;28;20038;-69
2022/05/29 04:48:28;;;;;;;16.73;4.38;;;10.80;99.90;;;;;;5034930;28;20026;-69
2022/05/29 04:51:02;;;;;;;20.73;4.68;;;10.90;99.90;;;;;;5036007;28;20064;-69
2022/05/29 04:53:29;;;;;;;23.27;4.07;;;10.90;99.90;;;;;;5036827;28;20029;-70
2022/05/29 04:55:57;;;;;;;21.67;4.22;;;10.90;99.90;;;;;;5028390;28;20027;-69
2022/05/29 04:58:24;;;;;;;21.02;4.55;;;11.00;99.90;;;;;;5037149;28;20049;-69
2022/05/29 05:00:56;;;;;;;19.50;4.72;;;11.10;99.90;;;;;;5016586;28;20017;-69
2022/05/29 05:03:21;;;;;;;16.85;4.50;;;11.00;99.90;;;;;;5033926;28;20051;-69
2022/05/29 05:05:47;;;;;;;24.20;5.13;;;11.00;99.90;;;;;;5033594;28;20025;-69
2022/05/29 05:08:13;;;;;;;26.23;5.40;;;11.00;99.90;;;;;;5034516;28;20040;-70
2022/05/29 05:10:40;;;;;;;23.25;4.88;;;10.90;99.90;;;;;;5042808;28;20033;-69
2022/05/29 05:13:08;;;;;;;18.67;4.78;;;10.90;99.90;;;;;;5040409;28;20030;-69
2022/05/29 05:15:33;;;;;;;15.35;4.05;;;11.00;99.90;;;;;;5033848;28;20049;-70
2022/05/29 05:17:59;;;;;;;20.05;4.60;;;11.00;99.90;;;;;;5033660;28;20479;-69
2022/05/29 05:20:24;;;;;;;19.42;4.80;;;11.00;99.90;;;;;;5033512;28;20049;-69
2022/05/29 05:22:52;;;;;;;15.10;3.75;;;11.10;99.90;;;;;;5033279;28;20021;-70
2022/05/29 05:25:17;;;;;;;16.75;4.43;;;11.20;99.90;;;;;;5033056;28;20061;-69
2022/05/29 05:27:43;;;;;;;14.48;3.90;;;11.20;99.90;;;;;;5015314;28;20079;-70
2022/05/29 05:30:09;;;;;;;15.52;4.78;;;11.10;99.90;;;;;;5033159;28;20036;-69
2022/05/29 05:32:35;;;;;;;22.85;4.47;;;11.10;99.90;;;;;;5032750;28;20068;-68
2022/05/29 05:35:04;;;;;;;20.27;4.40;;;11.10;99.90;;;;;;5032790;28;20050;-69
2022/05/29 05:37:30;;;;;;;18.33;5.30;;;11.10;99.90;;;;;;5033078;28;20049;-68
2022/05/29 05:39:56;;;;;;;14.70;4.18;;;11.10;99.90;;;;;;5032854;28;20022;-68
2022/05/29 05:42:22;;;;;;;15.32;4.28;;;11.10;99.90;;;;;;5033113;28;20031;-69
2022/05/29 05:44:48;;;;;;;24.20;4.82;;;11.00;99.90;;;;;;5032553;28;20029;-69
2022/05/29 05:47:13;;;;;;;25.63;4.75;;;11.00;99.90;;;;;;5033104;28;20034;-69
2022/05/29 05:49:39;;;;;;;15.90;4.43;;;11.00;99.90;;;;;;5033205;28;20033;-69
2022/05/29 05:52:05;;;;;;;18.20;4.78;;;11.00;99.90;;;;;;5032884;28;20101;-69
2022/05/29 05:54:32;;;;;;;22.23;5.13;;;10.90;99.90;;;;;;5032799;28;20386;-69
2022/05/29 05:56:57;;;;;;;16.85;4.35;;;11.00;99.90;;;;;;5032837;28;20049;-69
2022/05/29 05:59:23;;;;;;;13.82;4.10;;;11.00;99.90;;;;;;5037951;28;20038;-69
2022/05/29 06:01:49;;;;;;;21.73;4.53;;;11.10;99.90;;;;;;5040562;28;20083;-69
2022/05/29 06:04:14;;;;;;;15.88;4.15;;;11.10;99.90;;;;;;5036879;28;20017;-68
2022/05/29 06:06:40;;;;;;;13.77;4.22;;;11.10;99.90;;;;;;5036811;28;20029;-68
2022/05/29 06:09:06;;;;;;;23.23;5.38;;;11.20;99.90;;;;;;5036997;28;20021;-69
2022/05/29 06:11:33;;;;;;;22.48;5.00;;;11.10;99.90;;;;;;5026646;28;20403;-69
2022/05/29 06:13:58;;;;;;;13.35;3.88;;;11.10;99.90;;;;;;5051836;28;20387;-68
2022/05/29 06:16:24;;;;;;;11.30;4.03;;;11.20;99.90;;;;;;5052168;28;20112;-69
2022/05/29 06:18:49;;;;;;;23.80;3.90;;;11.20;99.90;;;;;;5055933;28;20032;-69
2022/05/29 06:21:15;;;;;;;16.73;3.53;;;11.30;99.90;;;;;;5055230;28;20081;-68
2022/05/29 06:23:41;;;;;;;17.27;3.85;;;11.30;99.90;;;;;;5023140;28;20383;-69
2022/05/29 06:26:09;;;;;;;19.83;4.25;;;11.30;99.90;;;;;;5019221;28;20170;-69
2022/05/29 06:28:35;;;;;;;19.30;3.47;;;11.30;99.90;;;;;;5037581;28;20022;-69
2022/05/29 06:31:06;;;;;;;15.43;3.47;;;11.30;99.90;;;;;;5037169;28;20040;-70
2022/05/29 06:33:32;;;;;;;14.75;3.13;;;11.30;99.90;;;;;;5037066;28;20033;-69
2022/05/29 06:36:13;;;;;;;13.65;3.17;;;11.30;99.90;;;;;;5036152;28;20101;-70
2022/05/29 06:38:39;;;;;;;16.60;3.53;;;11.20;99.90;;;;;;5036682;28;20030;-69
2022/05/29 06:41:06;;;;;;;14.57;4.03;;;11.10;99.90;;;;;;5036357;28;20077;-69
2022/05/29 06:43:32;;;;;;;14.23;3.40;;;11.10;99.90;;;;;;5036037;28;20105;-69
2022/05/29 06:45:59;;;;;;;17.35;4.18;;;11.10;99.90;;;;;;5035974;28;20061;-69
2022/05/29 06:48:25;;;;;;;16.45;3.72;;;11.10;99.90;;;;;;5039263;28;20408;-69
2022/05/29 06:50:50;;;;;;;22.75;3.42;;;11.10;99.90;;;;;;5023910;28;20026;-69
2022/05/29 06:53:16;;;;;;;16.02;4.00;;;11.20;99.90;;;;;;5036027;28;20120;-69
2022/05/29 06:55:50;;;;;;;16.02;3.25;;;11.20;99.90;;;;;;5035734;28;20021;-69
2022/05/29 06:58:16;;;;;;;16.83;4.10;;;11.20;99.90;;;;;;5036962;28;20018;-70
2022/05/29 07:08:54;;;;;;;14.85;3.30;;;10.90;99.90;;;;;;5035939;28;20457;-69
2022/05/29 07:11:24;;;;;;;19.33;4.30;;;10.80;99.90;;;;;;5035736;28;20030;-70
2022/05/29 07:13:50;;;;;;;12.45;3.50;;;10.80;99.90;;;;;;5036040;28;20115;-69
2022/05/29 07:16:16;;;;;;;14.13;4.05;;;10.80;99.90;;;;;;5036102;28;20033;-69
2022/05/29 07:18:42;;;;;;;16.13;4.32;;;10.80;99.90;;;;;;5035368;28;20029;-69
2022/05/29 07:21:07;;;;;;;18.88;5.03;;;10.70;99.90;;;;;;5035751;28;20402;-70
2022/05/29 07:23:37;;;;;;;18.27;4.05;;;10.60;99.90;;;;;;5034978;28;20029;-71
2022/05/29 07:26:04;;;;;;;15.60;3.70;;;10.60;99.90;;;;;;5035042;28;20039;-69
2022/05/29 07:28:29;;;;;;;18.65;3.83;;;10.60;99.90;;;;;;5035588;28;20394;-69
2022/05/29 07:30:55;;;;;;;25.15;4.57;;;10.60;99.90;;;;;;5035361;28;20038;-69
2022/05/29 07:33:22;;;;;;;17.67;4.70;;;10.60;99.90;;;;;;5034993;28;20057;-68
2022/05/29 07:35:48;;;;;;;16.55;4.30;;;10.60;99.90;;;;;;5035468;28;20457;-69
2022/05/29 07:38:14;;;;;;;22.15;5.03;;;10.60;99.90;;;;;;5017776;28;20057;-69
2022/05/29 07:40:40;;;;;;;14.23;4.07;;;10.60;99.90;;;;;;5035274;28;20022;-69
2022/05/29 07:43:22;;;;;;;20.60;3.83;;;10.70;99.90;;;;;;5016619;28;20025;-69
2022/05/29 07:45:53;;;;;;;11.80;2.95;;;10.70;99.90;;;;;;5035009;28;20026;-69
2022/05/29 07:48:21;;;;;;;14.35;4.03;;;10.80;99.90;;;;;;5034618;28;20018;-69
2022/05/29 07:50:47;;;;;;;19.35;4.70;;;11.00;99.90;;;;;;5016628;28;20034;-69
2022/05/29 07:53:13;;;;;;;17.17;3.65;;;11.00;99.90;;;;;;5034789;28;20033;-69
2022/05/29 07:55:39;;;;;;;15.15;3.17;;;11.00;99.90;;;;;;5033882;28;20029;-69
2022/05/29 07:58:06;;;;;;;14.95;3.40;;;11.00;99.90;;;;;;5034526;28;20026;-70
2022/05/29 08:00:32;;;;;;;15.93;3.90;;;10.90;99.90;;;;;;5034709;28;20049;-70
2022/05/29 08:02:58;;;;;;;13.25;3.60;;;10.80;99.90;;;;;;5034252;28;20021;-70
2022/05/29 08:05:24;;;;;;;10.35;3.63;;;10.70;99.90;;;;;;5034047;28;20022;-70
2022/05/29 08:07:51;;;;;;;21.17;4.53;;;10.60;99.90;;;;;;5034028;28;20065;-71
2022/05/29 08:10:20;;;;;;;17.85;3.67;;;10.50;99.90;;;;;;5034370;28;20030;-70
2022/05/29 08:12:46;;;;;;;10.38;3.65;;;10.50;99.90;;;;;;5033862;28;20123;-69
2022/05/29 08:15:12;;;;;;;12.45;4.18;;;10.50;99.90;;;;;;5016130;28;20021;-70
2022/05/29 08:17:39;;;;;;;16.63;5.18;;;10.60;99.90;;;;;;5016039;28;20130;-69
2022/05/29 08:20:06;;;;;;;11.45;3.45;;;10.60;99.90;;;;;;5033921;28;20108;-70
2022/05/29 08:22:31;;;;;;;10.35;3.58;;;10.60;99.90;;;;;;5033588;28;20085;-70
2022/05/29 08:30:38;;;;;;;14.80;4.47;;;10.70;99.90;;;;;;5036220;28;20550;-70
2022/05/29 08:33:24;;;;;;;13.90;4.88;;;10.70;99.90;;;;;;5030209;28;20025;-70
2022/05/29 08:35:53;;;;;;;15.93;5.43;;;10.80;99.90;;;;;;5016378;28;20045;-71
2022/05/29 08:38:19;;;;;;;15.10;3.58;;;10.80;99.90;;;;;;5005793;28;20020;-71
2022/05/29 08:41:04;;;;;;;11.65;3.90;;;10.90;99.90;;;;;;5031744;28;20053;-72
2022/05/29 08:43:33;;;;;;;18.40;4.95;;;11.00;99.90;;;;;;5036234;28;20036;-71
2022/05/29 08:46:04;;;;;;;15.27;4.53;;;11.00;99.90;;;;;;5024906;28;20021;-71
2022/05/29 08:48:30;;;;;;;;;;;10.90;99.90;;;;;;5018267;28;20092;-71
2022/05/29 08:51:24;;;;;;;11.75;3.38;;;10.90;99.90;;;;;;5035938;28;19933;-71
2022/05/29 08:54:27;;;;;;;16.45;3.28;;;10.90;99.90;;;;;;5036555;28;20111;-71
2022/05/29 08:57:11;;;;;;;16.52;3.78;;;10.80;99.90;;;;;;5038581;28;20025;-71
2022/05/29 08:59:47;;;;;;;14.25;3.35;;;10.90;99.90;;;;;;5036142;28;20109;-71
2022/05/29 09:02:24;;;;;;;8.70;3.05;;;11.00;99.90;;;;;;5035385;28;20391;-71
2022/05/29 09:04:59;;;;;;;11.88;3.42;;;11.00;99.90;;;;;;5035190;28;20029;-72
2022/05/29 09:07:28;;;;;;;8.05;2.00;;;11.00;99.90;;;;;;5035210;28;20419;-72
2022/05/29 09:10:27;;;;;;;6.43;2.30;;;11.10;99.90;;;;;;5035092;28;20029;-71
2022/05/29 09:12:54;;;;;;;10.38;3.30;;;11.10;99.90;;;;;;4997664;28;20034;-71
2022/05/29 09:15:29;;;;;;;13.38;5.55;;;11.20;99.90;;;;;;5033334;28;20030;-71
2022/05/29 09:18:00;;;;;;;11.27;5.32;;;11.30;99.90;;;;;;5028559;28;20394;-71
2022/05/29 09:20:30;;;;;;;20.17;4.93;;;11.40;99.90;;;;;;5017931;28;20017;-71
2022/05/29 09:23:01;;;;;;;19.13;4.70;;;11.40;99.90;;;;;;5034889;28;20037;-71
2022/05/29 09:25:55;;;;;;;13.38;3.55;;;11.50;99.90;;;;;;5035366;28;20025;-71
2022/05/29 09:28:32;;;;;;;13.43;3.95;;;11.60;99.90;;;;;;5033363;28;20506;-71
2022/05/29 09:31:07;;;;;;;15.98;4.63;;;11.60;99.90;;;;;;5018085;28;20033;-71
2022/05/29 09:33:33;;;;;;;16.05;4.20;;;11.60;99.90;;;;;;5032585;28;20025;-73
2022/05/29 09:36:07;;;;;;;13.13;3.42;;;11.80;99.90;;;;;;5038170;28;20025;-73
2022/05/29 09:39:02;;;;;;;18.83;4.85;;;12.00;99.90;;;;;;5040974;28;20034;-73
2022/05/29 09:41:29;;;;;;;13.73;3.65;;;12.10;99.90;;;;;;5012684;28;20380;-74
2022/05/29 09:44:17;;;;;;;17.17;3.60;;;12.20;99.90;;;;;;5021509;28;20479;-74
2022/05/29 09:46:45;;;;;;;10.95;2.78;;;12.20;99.90;;;;;;5003401;28;20030;-73
2022/05/29 09:52:14;;;;;;;11.52;3.17;;;11.80;99.90;;;;;;5021889;28;20378;-74
2022/05/29 09:54:57;;;;;;;10.77;2.78;;;11.60;99.90;;;;;;5041153;28;20112;-74
2022/05/29 09:57:29;;;;;;;18.42;3.45;;;11.40;99.90;;;;;;5042701;28;20033;-74
2022/05/29 10:00:23;;;;;;;17.85;2.92;;;11.40;99.90;;;;;;5047563;28;20071;-73
2022/05/29 10:02:49;;;;;;;13.63;2.35;;;11.30;99.90;;;;;;5022574;28;20103;-70
2022/05/29 10:05:24;;;;;;;11.13;2.65;;;11.30;99.90;;;;;;5039926;28;20017;-72
2022/05/29 10:07:52;;;;;;;12.40;2.65;;;11.20;99.90;;;;;;5041271;28;20582;-73
2022/05/29 10:10:26;;;;;;;6.50;2.60;;;11.30;99.90;;;;;;5040648;28;20030;-73
2022/05/29 10:12:54;;;;;;;8.70;2.88;;;11.30;99.90;;;;;;5042082;28;20029;-73
2022/05/29 10:15:26;;;;;;;11.93;4.05;;;11.30;99.90;;;;;;5038746;28;20030;-70
2022/05/29 10:17:58;;;;;;;13.63;4.43;;;11.40;99.90;;;;;;5036087;28;20091;-71
2022/05/29 10:20:33;;;;;;;11.73;3.97;;;11.50;99.90;;;;;;5048944;28;20694;-71
2022/05/29 10:23:07;;;;;;;6.68;2.80;;;11.60;99.90;;;;;;5026547;28;20025;-68
2022/05/29 10:25:57;;;;;;;6.75;2.50;;;11.90;99.90;;;;;;5038397;28;20033;-69
2022/05/29 10:28:31;;;;;;;8.33;2.20;;;12.10;99.90;;;;;;5010582;28;20091;-71
2022/05/29 10:31:00;;;;;;;8.80;2.67;;;12.30;99.90;;;;;;5038672;28;20021;-70
2022/05/29 10:33:28;;;;;;;10.23;1.98;;;12.30;99.90;;;;;;5020624;28;20053;-71
2022/05/29 10:36:15;;;;;;;4.95;1.90;;;12.50;99.90;;;;;;5035960;28;20089;-71
2022/05/29 10:38:43;;;;;;;5.15;1.60;;;12.50;99.90;;;;;;5037764;28;20513;-71
2022/05/29 10:41:12;;;;;;;13.85;2.28;;;12.40;99.90;;;;;;5038673;28;20409;-70
2022/05/29 10:43:47;;;;;;;5.50;1.70;;;12.40;99.90;;;;;;5038608;28;20025;-72
2022/05/29 10:46:20;;;;;;;6.63;1.88;;;12.30;99.90;;;;;;5037521;28;20072;-72
2022/05/29 10:49:04;;;;;;;8.95;1.75;;;12.40;99.90;;;;;;5038387;28;20075;-71
2022/05/29 10:51:45;;;;;;;9.88;2.65;;;12.40;99.90;;;;;;5039249;28;20029;-71
2022/05/29 10:54:23;;;;;;;7.18;1.83;;;12.40;99.90;;;;;;5041865;28;20029;-71
2022/05/29 10:57:27;;;;;;;6.28;2.40;;;12.30;99.90;;;;;;5043026;28;20045;-72
2022/05/29 11:00:06;;;;;;;6.82;2.20;;;12.30;99.90;;;;;;5042070;28;20020;-71
2022/05/29 11:03:20;;;;;;;6.80;2.17;;;12.10;99.90;;;;;;5044118;28;20079;-71
2022/05/29 11:06:05;;;;;;;5.38;1.75;;;12.00;99.90;;;;;;5039010;28;20539;-71
2022/05/29 11:08:52;;;;;;;6.00;2.10;;;11.90;99.90;;;;;;5036866;28;20047;-71
2022/05/29 11:11:37;;;;;;;6.82;2.90;;;11.90;99.90;;;;;;5037159;28;20029;-70
2022/05/29 11:14:32;;;;;;;4.15;2.58;;;11.90;99.90;;;;;;5037444;28;20026;-70
2022/05/29 11:17:22;;;;;;;5.65;2.03;;;11.90;99.90;;;;;;5037628;28;20048;-70
2022/05/29 11:20:00;;;;;;;7.30;2.35;;;11.90;99.90;;;;;;5037084;28;20042;-70
2022/05/29 11:22:38;;;;;;;9.63;3.38;;;11.90;99.90;;;;;;5017736;28;20025;-71
2022/05/29 11:25:17;;;;;;;12.23;3.53;;;12.10;99.90;;;;;;5036473;28;20038;-71
2022/05/29 11:28:15;;;;;;;11.85;4.53;;;12.30;99.90;;;;;;5038474;28;20100;-71
2022/05/29 11:30:54;;;;;;;7.45;3.30;;;12.50;99.90;;;;;;5038607;28;20064;-71
2022/05/29 11:33:38;;;;;;;4.93;2.15;;;12.80;99.90;;;;;;5022919;28;20067;-70
2022/05/29 11:36:22;;;;;;;10.43;1.95;;;13.00;99.90;;;;;;5050460;28;20039;-71
2022/05/29 11:38:56;;;;;;;6.57;2.30;;;13.20;99.90;;;;;;5035985;28;20495;-72
2022/05/29 11:41:44;;;;;;;6.00;2.03;;;13.10;99.90;;;;;;5040060;28;20368;-73
2022/05/29 11:44:43;;;;;;;4.78;1.50;;;13.10;99.90;;;;;;5040352;28;20057;-72
2022/05/29 11:53:25;;;;;;;8.18;1.83;;;13.20;99.90;;;;;;5038310;28;20446;-72
2022/05/29 11:55:55;;;;;;;7.97;2.00;;;13.30;99.90;;;;;;5037229;28;20025;-74
2022/05/29 11:58:32;;;;;;;7.93;2.92;;;13.30;99.90;;;;;;5038446;28;20025;-72
2022/05/29 12:01:11;;;;;;;8.60;1.95;;;13.30;99.90;;;;;;5036575;28;20509;-72
2022/05/29 12:03:44;;;;;;;10.85;2.40;;;13.20;99.90;;;;;;5036356;28;20022;-73
2022/05/29 12:06:32;;;;;;;9.18;2.75;;;13.20;99.90;;;;;;5033085;28;20501;-73
2022/05/29 12:09:15;;;;;;;4.85;1.88;;;13.00;99.90;;;;;;5031004;28;20064;-73
2022/05/29 12:11:49;;;;;;;11.68;2.65;;;12.80;99.90;;;;;;5031318;28;20029;-73
2022/05/29 12:14:39;;;;;;;5.68;2.33;;;12.60;99.90;;;;;;5030680;28;20030;-73
2022/05/29 12:17:19;;;;;;;8.38;2.83;;;12.50;99.90;;;;;;5032826;28;20031;-74
2022/05/29 12:20:07;;;;;;;7.97;2.30;;;12.30;99.90;;;;;;5033938;28;20029;-73
2022/05/29 12:22:45;;;;;;;11.13;3.63;;;12.20;99.90;;;;;;5017690;28;20034;-73
2022/05/29 12:25:42;;;;;;;7.20;2.35;;;12.10;99.90;;;;;;5015447;28;20101;-74
2022/05/29 12:28:13;;;;;;;11.02;2.60;;;12.00;99.90;;;;;;5015734;28;20029;-73
2022/05/29 12:30:43;;;;;;;10.70;2.70;;;11.90;99.90;;;;;;5017192;28;20034;-75
2022/05/29 12:33:13;;;;;;;7.80;2.20;;;11.80;99.90;;;;;;5016562;28;20026;-73
2022/05/29 12:35:48;;;;;;;9.07;2.13;;;11.80;99.90;;;;;;5017193;28;20083;-74
2022/05/29 12:38:51;;;;;;;8.43;2.50;;;11.80;99.90;;;;;;5036223;28;20032;-74
2022/05/29 12:41:17;;;;;;;15.95;3.45;;;11.80;99.90;;;;;;5034698;28;20045;-74
2022/05/29 12:44:11;;;;;;;11.27;3.15;;;12.00;99.90;;;;;;5036622;28;20079;-71
2022/05/29 12:46:45;;;;;;;11.30;2.80;;;12.10;99.90;;;;;;5031266;28;20510;-74
2022/05/29 12:49:45;;;;;;;10.02;2.65;;;12.20;99.90;;;;;;5030946;28;20061;-74
2022/05/29 12:52:17;;;;;;;9.57;3.03;;;12.30;99.90;;;;;;5038907;28;20052;-74
2022/05/29 12:55:17;;;;;;;9.70;2.40;;;12.40;99.90;;;;;;5038437;28;20036;-74
2022/05/29 12:58:12;;;;;;;8.48;1.77;;;12.50;99.90;;;;;;5038949;28;20120;-73
2022/05/29 13:01:06;;;;;;;8.52;2.38;;;12.30;99.90;;;;;;5035595;28;20021;-72
2022/05/29 13:04:10;;;;;;;11.68;2.35;;;12.20;99.90;;;;;;5041958;28;20108;-74
2022/05/29 13:06:48;;;;;;;10.30;2.90;;;12.30;99.90;;;;;;5036888;28;20053;-72
2022/05/29 13:09:29;;;;;;;8.02;2.42;;;12.40;99.90;;;;;;5042935;28;20037;-75
2022/05/29 13:12:00;;;;;;;10.95;2.65;;;12.50;99.90;;;;;;5034118;28;20085;-74
2022/05/29 13:14:27;;;;;;;11.75;4.18;;;12.40;99.90;;;;;;5034981;28;20037;-74
2022/05/29 13:17:09;;;;;;;13.63;3.40;;;12.50;99.90;;;;;;5040509;28;20109;-72
2022/05/29 13:20:01;;;;;;;11.68;3.20;;;12.50;99.90;;;;;;5031816;28;20091;-71
2022/05/29 13:23:01;;;;;;;12.70;2.53;;;12.30;99.90;;;;;;5030388;28;20048;-71
2022/05/29 13:25:37;;;;;;;9.15;2.63;;;12.10;99.90;;;;;;4993502;28;20037;-71
2022/05/29 13:28:47;;;;;;;11.43;2.75;;;12.00;99.90;;;;;;5034497;28;20026;-71
2022/05/29 13:31:14;;;;;;;8.85;1.95;;;11.90;99.90;;;;;;5018061;28;20033;-71
2022/05/29 13:33:43;;;;;;;13.38;3.30;;;11.80;99.90;;;;;;5037145;28;20041;-69
2022/05/29 13:36:10;;;;;;;11.95;3.75;;;11.90;99.90;;;;;;5036478;28;20053;-70
2022/05/29 13:38:45;;;;;;;12.02;3.50;;;11.90;99.90;;;;;;5037106;28;20032;-69
2022/05/29 13:41:57;;;;;;;13.30;3.17;;;12.00;99.90;;;;;;5034116;28;20541;-70
2022/05/29 13:44:34;;;;;;;;;;;12.10;99.90;;;;;;5005226;28;20025;-70
2022/05/29 13:47:19;;;;;;;11.63;3.22;;;12.30;99.90;;;;;;5039677;28;19905;-68